Darby, MT

5:13 AM MDT on August 29, 2014 (GMT -0600)
Lowell | Change Station
CLOSE
Current Station
Airport
Location: Lowell,
Elevation: 1480 ft
Nearby Weather Stations

Elev 1480 ft 46.14 °N, 115.60 °W | Updated 21 minutes ago

Clear
Clear
55 °F
Feels Like 55 °F
N
5
Wind Variable Wind from NW
Gusts 5 mph

Today
High -- | Low -- °F
--% Chance of Precip.
Yesterday
High -- | Low -- °F
Precip. -- in
6:53 AM 8:20 PM
Waxing Crescent, 13% visible
Pressure 29.98 in
Visibility -9999.0 miles
Clouds
Dew Point 51 °F
Humidity 86%
Rainfall 0.00 in
Snow Depth 0 in , 0 in
UV Not available.
Pollen 8.00 out of 12
Air Quality Not available.
Flu Activity Not available.
METAR KP69 291052Z AUTO 32004KT 13/11 A3003 RMK AO1 SLP152 T01280106

More Conditions Fewer Conditions

Pressure 29.98 in
Visibility -9999.0 miles
Clouds
Dew Point 51 °F
Humidity 86%
Rainfall 0.00 in
Snow Depth 0 in , 0 in
UV Not available.
Pollen 8.00 out of 12
Air Quality Not available.
Flu Activity Not available.
METAR KP69 291052Z AUTO 32004KT 13/11 A3003 RMK AO1 SLP152 T01280106

More Conditions Fewer Conditions

10-Day Weather Forecast

Almanac

Astronomy

Aug. 29, 2014 Rise Set
Actual Time 6:53 AM MDT 8:20 PM MDT
Civil Twilight 6:22 AM MDT 8:51 PM MDT
Nautical Twilight 5:44 AM MDT 9:29 PM MDT
Astronomical Twilight 5:04 AM MDT 10:09 PM MDT
Moon 11:02 AM MDT 10:04 PM MDT
Length of Visible Light 14h 28m
Length of Day
13h 26m
Tomorrow will be 3m 6s shorter.
Waxing Crescent, 13% of the Moon is Illuminated
Today
Waxing Crescent
Sep 2
First Quarter
Sep 8
Full
Sep 15
Last Quarter
Sep 24
New

Today's Extremes

State Highs State Lows

Community

WunderPhotos

Upload Photos

1,748,211 photos uploaded!

Nearby

Snow Depth

Station Depth Elevation
Twelvemile Creek 0 in 5600 ft
Twin Lakes 0 in 6400 ft
Saddle Mountain 0 in 7900 ft
Nez Perce Camp 0 in 5650 ft
Peterson Meadows 0 in 7200 ft

Earthquake Activity

City Distance Mag. Time & Date
No recent earthquake activity has been reported nearby.
Minimum magnitude displayed is 2.5.

Coastal Water Temperatures

Place Temperature
No Stations Reporting

Nearby Weather Stations